Time;durP1;ratioP1;P1;durP2;ratioP2;P2;SDS_P1;SDS_P2;PMS_P1;PMS_P2;Temp;Humidity;BMP_temperature;BMP_pressure;BME280_temperature;BME280_humidity;BME280_pressure;Samples;Min_cycle;Max_cycle;Signal;HPM_P1;HPM_P2
2023/05/12 00:01:29;;;;;;;10.95;6.40;;;12.00;99.90;;;;;;5013582;28;20136;-73
2023/05/12 00:03:55;;;;;;;11.63;7.22;;;12.10;99.90;;;;;;5014567;28;20092;-73
2023/05/12 00:06:21;;;;;;;11.20;7.03;;;12.10;99.90;;;;;;5014397;28;20081;-74
2023/05/12 00:08:46;;;;;;;12.55;7.00;;;12.10;99.90;;;;;;5013067;28;20132;-73
2023/05/12 00:11:12;;;;;;;11.45;6.93;;;12.10;99.90;;;;;;5013894;28;20482;-73
2023/05/12 00:13:38;;;;;;;12.23;7.35;;;12.10;99.90;;;;;;5014149;28;20399;-73
2023/05/12 00:16:04;;;;;;;13.57;7.50;;;12.10;99.90;;;;;;5013807;28;20104;-73
2023/05/12 00:18:30;;;;;;;11.80;8.13;;;12.10;99.90;;;;;;5013524;28;20058;-73
2023/05/12 00:20:56;;;;;;;13.55;8.25;;;12.10;99.90;;;;;;5014114;28;20635;-73
2023/05/12 00:23:22;;;;;;;13.13;8.27;;;12.10;99.90;;;;;;5010737;28;20049;-73
2023/05/12 00:25:47;;;;;;;14.30;8.35;;;12.10;99.90;;;;;;4994354;28;20046;-74
2023/05/12 00:28:13;;;;;;;13.10;8.70;;;12.10;99.90;;;;;;4994319;28;20069;-74
2023/05/12 00:30:39;;;;;;;14.63;8.20;;;12.10;99.90;;;;;;4994026;28;20050;-74
2023/05/12 00:33:04;;;;;;;16.00;8.70;;;12.10;99.90;;;;;;4993267;28;20046;-74
2023/05/12 00:35:30;;;;;;;13.63;8.73;;;12.10;99.90;;;;;;4993937;28;20047;-74
2023/05/12 00:37:56;;;;;;;15.57;9.40;;;12.10;99.90;;;;;;5001232;28;20520;-73
2023/05/12 00:40:22;;;;;;;15.40;8.75;;;12.10;99.90;;;;;;5013866;28;20101;-73
2023/05/12 00:42:48;;;;;;;13.82;9.02;;;12.10;99.90;;;;;;5013855;28;20075;-72
2023/05/12 00:45:14;;;;;;;15.65;9.18;;;12.10;99.90;;;;;;5013038;28;20524;-74
2023/05/12 00:47:40;;;;;;;17.98;10.07;;;12.10;99.90;;;;;;5013273;28;20088;-73
2023/05/12 00:50:07;;;;;;;17.08;9.90;;;12.10;99.90;;;;;;5013367;28;20371;-73
2023/05/12 00:52:33;;;;;;;16.92;10.35;;;12.10;99.90;;;;;;5013443;28;20056;-74
2023/05/12 00:55:00;;;;;;;16.45;10.07;;;12.10;99.90;;;;;;5013618;28;20054;-73
2023/05/12 00:57:26;;;;;;;18.10;10.52;;;12.10;99.90;;;;;;5012244;28;20056;-73
2023/05/12 00:59:53;;;;;;;18.67;10.80;;;12.10;99.90;;;;;;5013247;28;20122;-73
2023/05/12 01:02:19;;;;;;;18.05;10.38;;;12.20;99.90;;;;;;5011989;28;20053;-74
2023/05/12 01:04:46;;;;;;;18.80;11.15;;;12.20;99.90;;;;;;5013506;28;20053;-73
2023/05/12 01:07:19;;;;;;;17.90;10.85;;;12.20;99.90;;;;;;5012164;28;20051;-73
2023/05/12 01:09:45;;;;;;;19.73;11.15;;;12.20;99.90;;;;;;5013102;28;20050;-73
2023/05/12 01:12:10;;;;;;;19.85;11.23;;;12.20;99.90;;;;;;5013339;28;20074;-73
2023/05/12 01:14:36;;;;;;;22.65;12.43;;;12.20;99.90;;;;;;5012649;28;20048;-75
2023/05/12 01:17:07;;;;;;;20.58;11.57;;;12.20;99.90;;;;;;5014230;28;20054;-73
2023/05/12 01:19:55;;;;;;;21.17;11.40;;;12.20;99.90;;;;;;5014796;28;20065;-73
2023/05/12 01:22:21;;;;;;;23.52;12.85;;;12.20;99.90;;;;;;4995836;28;20062;-73
2023/05/12 01:24:53;;;;;;;25.90;13.27;;;12.20;99.90;;;;;;4997656;28;20061;-74
2023/05/12 01:27:22;;;;;;;22.75;12.65;;;12.20;99.90;;;;;;4992162;28;20120;-73
2023/05/12 01:29:50;;;;;;;25.70;14.05;;;12.20;99.90;;;;;;4993453;28;20472;-73
2023/05/12 01:32:16;;;;;;;23.40;12.70;;;12.20;99.90;;;;;;4993490;28;20060;-73
2023/05/12 01:34:42;;;;;;;25.67;13.10;;;12.20;99.90;;;;;;4993405;28;20494;-73
2023/05/12 01:37:09;;;;;;;23.63;13.02;;;12.20;99.90;;;;;;4993484;28;20050;-73
2023/05/12 01:39:35;;;;;;;25.45;12.88;;;12.20;99.90;;;;;;4993290;28;20049;-74
2023/05/12 01:42:04;;;;;;;24.77;13.50;;;12.20;99.90;;;;;;4993381;28;20178;-73
2023/05/12 01:44:30;;;;;;;22.13;13.13;;;12.20;99.90;;;;;;4992426;28;20403;-74
2023/05/12 01:46:56;;;;;;;22.95;12.88;;;12.20;99.90;;;;;;4992813;28;20055;-74
2023/05/12 01:49:22;;;;;;;20.40;11.90;;;12.20;99.90;;;;;;4993152;28;20046;-73
2023/05/12 01:51:47;;;;;;;22.70;13.00;;;12.20;99.90;;;;;;5000643;28;20117;-73
2023/05/12 01:54:13;;;;;;;22.50;12.27;;;12.20;99.90;;;;;;5012733;28;20053;-74
2023/05/12 01:56:39;;;;;;;22.85;13.70;;;12.30;99.90;;;;;;5012783;28;20133;-73
2023/05/12 01:59:05;;;;;;;23.15;13.43;;;12.30;99.90;;;;;;5012549;28;20512;-74
2023/05/12 02:01:31;;;;;;;24.00;13.63;;;12.30;99.90;;;;;;5012965;28;20128;-73
2023/05/12 02:03:58;;;;;;;26.65;13.68;;;12.30;99.90;;;;;;5012619;28;20045;-74
2023/05/12 02:06:24;;;;;;;25.70;13.13;;;12.30;99.90;;;;;;5012600;28;20491;-74
2023/05/12 02:08:50;;;;;;;24.33;14.13;;;12.30;99.90;;;;;;5012343;28;20058;-74
2023/05/12 02:11:16;;;;;;;24.33;14.55;;;12.30;99.90;;;;;;5012435;28;20498;-74
2023/05/12 02:13:45;;;;;;;27.00;15.27;;;12.30;99.90;;;;;;5011715;28;20434;-74
2023/05/12 02:16:11;;;;;;;23.92;14.27;;;12.30;99.90;;;;;;5011817;28;20394;-74
2023/05/12 02:18:37;;;;;;;27.48;14.40;;;12.40;99.90;;;;;;5011349;28;20111;-74
2023/05/12 02:21:03;;;;;;;27.83;14.68;;;12.40;99.90;;;;;;5015084;28;20054;-74
2023/05/12 02:23:29;;;;;;;25.98;15.15;;;12.30;99.90;;;;;;5010728;28;20058;-74
2023/05/12 02:25:55;;;;;;;26.35;15.27;;;12.30;99.90;;;;;;4996370;28;20403;-74
2023/05/12 02:28:21;;;;;;;25.98;14.60;;;12.40;99.90;;;;;;4996673;28;20092;-74
2023/05/12 02:30:48;;;;;;;28.90;15.32;;;12.30;99.90;;;;;;4996564;28;20046;-73
2023/05/12 02:33:15;;;;;;;27.13;15.48;;;12.40;99.90;;;;;;4996501;28;20180;-74
2023/05/12 02:35:40;;;;;;;28.25;14.20;;;12.30;99.90;;;;;;4996186;28;20503;-73
2023/05/12 02:38:06;;;;;;;31.25;16.17;;;12.30;99.90;;;;;;4996594;28;20050;-74
2023/05/12 02:40:32;;;;;;;26.92;15.13;;;12.30;99.90;;;;;;4995225;28;20051;-73
2023/05/12 02:42:57;;;;;;;28.73;15.75;;;12.30;99.90;;;;;;4995484;28;20185;-73
2023/05/12 02:45:23;;;;;;;29.58;16.13;;;12.30;99.90;;;;;;4995626;28;20101;-73
2023/05/12 02:47:49;;;;;;;31.75;16.23;;;12.40;99.90;;;;;;4996409;28;20148;-73
2023/05/12 02:50:15;;;;;;;31.70;16.17;;;12.40;99.90;;;;;;4995733;28;20053;-73
2023/05/12 02:52:41;;;;;;;29.17;17.00;;;12.40;99.90;;;;;;4996105;28;20115;-74
2023/05/12 02:55:07;;;;;;;30.65;16.00;;;12.40;99.90;;;;;;4996171;28;20078;-73
2023/05/12 02:57:33;;;;;;;30.23;16.60;;;12.40;99.90;;;;;;4996114;28;20720;-74
2023/05/12 03:00:05;;;;;;;25.50;14.48;;;12.40;99.90;;;;;;4996085;28;20132;-73
2023/05/12 03:02:38;;;;;;;31.45;16.52;;;12.40;99.90;;;;;;4996086;28;20046;-73
2023/05/12 03:05:04;;;;;;;29.98;14.98;;;12.40;99.90;;;;;;4996215;28;20050;-74
2023/05/12 03:07:30;;;;;;;31.00;16.33;;;12.40;99.90;;;;;;4995912;28;20258;-74
2023/05/12 03:10:00;;;;;;;28.40;16.45;;;12.40;99.90;;;;;;4995934;28;20042;-74
2023/05/12 03:12:28;;;;;;;33.35;16.95;;;12.50;99.90;;;;;;4994409;28;20125;-74
2023/05/12 03:14:53;;;;;;;33.13;16.50;;;12.50;99.90;;;;;;4995455;28;20089;-74
2023/05/12 03:17:20;;;;;;;31.52;16.38;;;12.50;99.90;;;;;;5006696;28;20073;-74
2023/05/12 03:19:46;;;;;;;34.25;16.85;;;12.50;99.90;;;;;;5015126;28;20054;-74
2023/05/12 03:22:12;;;;;;;31.05;16.00;;;12.40;99.90;;;;;;5014871;28;20061;-74
2023/05/12 03:24:38;;;;;;;30.48;16.80;;;12.40;99.90;;;;;;5000192;28;20085;-74
2023/05/12 03:27:04;;;;;;;30.60;15.60;;;12.40;99.90;;;;;;4995569;28;20083;-74
2023/05/12 03:29:30;;;;;;;34.88;18.02;;;12.40;99.90;;;;;;4995480;28;20054;-74
2023/05/12 03:31:56;;;;;;;30.10;17.27;;;12.40;99.90;;;;;;4995167;28;20100;-74
2023/05/12 03:34:21;;;;;;;33.42;17.20;;;12.40;99.90;;;;;;4994577;28;20051;-74
2023/05/12 03:36:47;;;;;;;29.27;16.25;;;12.40;99.90;;;;;;4994468;28;20109;-73
2023/05/12 03:39:12;;;;;;;33.08;17.10;;;12.40;99.90;;;;;;4995194;28;20054;-73
2023/05/12 03:41:38;;;;;;;33.40;16.63;;;12.50;99.90;;;;;;4995408;28;20173;-74
2023/05/12 03:44:05;;;;;;;29.27;16.48;;;12.50;99.90;;;;;;4995111;28;20125;-74
2023/05/12 03:46:31;;;;;;;33.97;18.35;;;12.50;99.90;;;;;;4994627;28;20495;-74
2023/05/12 03:48:57;;;;;;;33.15;18.17;;;12.50;99.90;;;;;;4993541;28;20458;-74
2023/05/12 03:51:24;;;;;;;36.42;17.40;;;12.50;99.90;;;;;;4994699;28;20402;-73
2023/05/12 03:53:50;;;;;;;32.05;17.20;;;12.50;99.90;;;;;;4994231;28;20057;-74
2023/05/12 03:56:15;;;;;;;32.10;17.42;;;12.40;99.90;;;;;;4994856;28;20054;-74
2023/05/12 03:58:42;;;;;;;32.05;17.42;;;12.40;99.90;;;;;;4994821;28;20390;-75
2023/05/12 04:01:08;;;;;;;31.45;17.13;;;12.40;99.90;;;;;;4994915;28;20394;-74
2023/05/12 04:03:33;;;;;;;32.22;16.15;;;12.50;99.90;;;;;;4994632;28;20048;-75
2023/05/12 04:06:01;;;;;;;31.92;18.13;;;12.50;99.90;;;;;;4995576;28;20050;-74
2023/05/12 04:08:27;;;;;;;31.38;17.08;;;12.50;99.90;;;;;;4994919;28;20509;-74
2023/05/12 04:10:57;;;;;;;30.85;16.30;;;12.50;99.90;;;;;;4994659;28;20034;-74
2023/05/12 04:13:27;;;;;;;29.33;16.13;;;12.50;99.90;;;;;;4994285;28;20054;-74
2023/05/12 04:15:57;;;;;;;31.33;16.08;;;12.50;99.90;;;;;;4993064;28;20494;-74
2023/05/12 04:18:26;;;;;;;26.98;15.95;;;12.50;99.90;;;;;;4993953;28;20054;-74
2023/05/12 04:20:53;;;;;;;26.70;16.02;;;12.50;99.90;;;;;;4994483;28;20058;-74
2023/05/12 04:23:19;;;;;;;29.80;15.82;;;12.60;99.90;;;;;;4997579;28;20049;-73
2023/05/12 04:25:44;;;;;;;29.65;15.63;;;12.60;99.90;;;;;;5014150;28;20482;-73
2023/05/12 04:28:10;;;;;;;25.75;14.85;;;12.60;99.90;;;;;;5013567;28;20089;-73
2023/05/12 04:30:39;;;;;;;27.25;14.63;;;12.60;99.90;;;;;;5012536;28;20041;-73
2023/05/12 04:33:05;;;;;;;25.70;16.02;;;12.60;99.90;;;;;;5013791;28;20089;-73
2023/05/12 04:35:31;;;;;;;28.50;15.48;;;12.60;99.90;;;;;;5014055;28;20547;-73
2023/05/12 04:37:56;;;;;;;23.40;13.70;;;12.60;99.90;;;;;;5006533;28;20638;-74
2023/05/12 04:40:22;;;;;;;25.60;14.25;;;12.70;99.90;;;;;;4994160;28;20046;-74
2023/05/12 04:42:48;;;;;;;25.00;14.95;;;12.70;99.90;;;;;;4993294;28;20101;-74
2023/05/12 04:45:13;;;;;;;28.80;15.60;;;12.70;99.90;;;;;;4993676;28;20050;-73
2023/05/12 04:47:39;;;;;;;27.48;16.25;;;12.70;99.90;;;;;;4993852;28;20450;-73
2023/05/12 04:50:05;;;;;;;27.67;15.82;;;12.70;99.90;;;;;;4993999;28;20050;-74
2023/05/12 04:52:32;;;;;;;31.30;15.68;;;12.70;99.90;;;;;;4992555;28;20054;-73
2023/05/12 04:54:57;;;;;;;28.63;16.33;;;12.80;99.90;;;;;;4993910;28;20046;-74
2023/05/12 04:57:23;;;;;;;30.67;16.25;;;12.80;99.90;;;;;;4993794;28;20502;-74
2023/05/12 04:59:49;;;;;;;29.67;15.55;;;12.80;99.90;;;;;;4994029;28;20065;-74
2023/05/12 05:02:15;;;;;;;28.02;15.73;;;12.80;99.90;;;;;;4975929;28;20443;-74
2023/05/12 05:04:40;;;;;;;26.50;15.57;;;12.80;99.90;;;;;;4993734;28;20046;-73
2023/05/12 05:07:06;;;;;;;26.90;15.43;;;12.80;99.90;;;;;;4992418;28;20050;-74
2023/05/12 05:09:32;;;;;;;29.08;15.70;;;12.80;99.90;;;;;;4993540;28;20046;-74
2023/05/12 05:11:57;;;;;;;32.47;17.17;;;12.90;99.90;;;;;;4992138;28;20046;-74
2023/05/12 05:14:23;;;;;;;28.77;16.33;;;12.90;99.90;;;;;;4976461;28;20039;-74
2023/05/12 05:16:49;;;;;;;28.67;16.83;;;12.90;99.90;;;;;;4992685;28;20057;-74
2023/05/12 05:19:15;;;;;;;31.77;16.92;;;12.90;99.90;;;;;;4992171;28;20054;-74
2023/05/12 05:21:41;;;;;;;29.60;15.50;;;12.90;99.90;;;;;;4993758;28;20046;-74
2023/05/12 05:24:07;;;;;;;26.73;16.58;;;12.90;99.90;;;;;;5002870;28;20073;-74
2023/05/12 05:26:33;;;;;;;27.70;16.10;;;12.90;99.90;;;;;;5013091;28;20061;-74
2023/05/12 05:28:59;;;;;;;27.08;16.13;;;12.90;99.90;;;;;;5012682;28;20056;-73
2023/05/12 05:31:27;;;;;;;28.25;16.83;;;12.90;99.90;;;;;;5011382;28;20045;-74
2023/05/12 05:33:53;;;;;;;27.73;15.80;;;13.00;99.90;;;;;;5012657;28;20049;-73
2023/05/12 05:36:21;;;;;;;26.48;15.60;;;13.00;99.90;;;;;;5013039;28;20133;-74
2023/05/12 05:38:47;;;;;;;30.75;17.20;;;13.00;99.90;;;;;;4998965;28;20046;-73
2023/05/12 05:41:12;;;;;;;28.35;16.88;;;13.00;99.90;;;;;;4993223;28;20043;-73
2023/05/12 05:43:38;;;;;;;31.13;16.98;;;13.00;99.90;;;;;;4993470;28;20050;-73
2023/05/12 05:46:04;;;;;;;29.35;16.88;;;13.10;99.90;;;;;;4991605;28;20600;-74
2023/05/12 05:48:30;;;;;;;29.13;16.52;;;13.10;99.90;;;;;;4993101;28;20057;-73
2023/05/12 05:50:55;;;;;;;29.05;15.85;;;13.10;99.90;;;;;;4993143;28;20042;-73
2023/05/12 05:53:21;;;;;;;25.67;15.55;;;13.10;99.90;;;;;;4993243;28;20108;-74
2023/05/12 05:55:50;;;;;;;26.33;15.50;;;13.10;99.90;;;;;;4996898;28;20057;-74
2023/05/12 05:58:16;;;;;;;29.55;16.63;;;13.10;99.90;;;;;;4995750;28;20522;-74
2023/05/12 06:00:42;;;;;;;27.55;16.45;;;13.10;99.90;;;;;;4996716;28;20043;-74
2023/05/12 06:03:08;;;;;;;28.00;16.67;;;13.10;99.90;;;;;;4995906;28;20058;-75
2023/05/12 06:05:34;;;;;;;29.17;15.77;;;13.10;99.90;;;;;;4995797;28;20122;-73
2023/05/12 06:08:00;;;;;;;29.67;16.92;;;13.10;99.90;;;;;;4997133;28;20103;-74
2023/05/12 06:10:25;;;;;;;27.60;16.23;;;13.10;99.90;;;;;;4996536;28;20050;-74
2023/05/12 06:12:51;;;;;;;27.55;16.58;;;13.10;99.90;;;;;;4996728;28;20042;-69
2023/05/12 06:15:17;;;;;;;30.33;17.00;;;13.20;99.90;;;;;;4996366;28;20042;-69
2023/05/12 06:17:43;;;;;;;29.63;17.63;;;13.20;99.90;;;;;;4996573;28;20047;-69
2023/05/12 06:20:09;;;;;;;29.40;17.15;;;13.20;99.90;;;;;;4996974;28;20491;-69
2023/05/12 06:22:35;;;;;;;29.98;16.98;;;13.30;99.90;;;;;;4995499;28;20140;-69
2023/05/12 06:25:02;;;;;;;31.60;17.05;;;13.30;99.90;;;;;;4995332;28;20076;-69
2023/05/12 06:27:28;;;;;;;27.65;16.15;;;13.30;99.90;;;;;;4996343;28;20047;-69
2023/05/12 06:29:54;;;;;;;29.63;17.25;;;13.30;99.90;;;;;;4996417;28;20065;-68
2023/05/12 06:32:19;;;;;;;29.15;17.80;;;13.30;99.90;;;;;;4996674;28;20034;-70
2023/05/12 06:34:45;;;;;;;31.23;17.50;;;13.30;99.90;;;;;;4996871;28;20049;-69
2023/05/12 06:37:11;;;;;;;32.40;18.15;;;13.40;99.90;;;;;;4996116;28;20406;-69
2023/05/12 06:39:36;;;;;;;27.08;16.77;;;13.40;99.90;;;;;;5015674;28;20049;-69
2023/05/12 06:42:02;;;;;;;28.77;16.70;;;13.40;99.90;;;;;;5015969;28;20084;-68
2023/05/12 06:44:28;;;;;;;29.40;17.40;;;13.40;99.90;;;;;;5015266;28;20482;-71
2023/05/12 06:46:54;;;;;;;29.30;16.65;;;13.50;99.90;;;;;;5015459;28;20099;-69
2023/05/12 06:49:20;;;;;;;28.83;17.27;;;13.50;99.90;;;;;;5016004;28;20063;-69
2023/05/12 06:51:45;;;;;;;32.25;17.77;;;13.60;99.90;;;;;;5014753;28;20053;-69
2023/05/12 06:54:11;;;;;;;31.67;18.52;;;13.60;99.90;;;;;;5015658;28;20473;-70
2023/05/12 06:56:37;;;;;;;29.85;17.02;;;13.60;99.90;;;;;;5015763;28;20053;-69
2023/05/12 06:59:03;;;;;;;27.88;16.98;;;13.70;99.90;;;;;;5015292;28;20037;-70
2023/05/12 07:01:30;;;;;;;24.05;15.52;;;13.70;99.90;;;;;;5015585;28;20103;-70
2023/05/12 07:03:57;;;;;;;28.85;15.75;;;13.70;99.90;;;;;;5015355;28;20128;-70
2023/05/12 07:06:23;;;;;;;36.10;18.05;;;13.80;99.90;;;;;;5014925;28;20444;-68
2023/05/12 07:08:49;;;;;;;28.33;17.42;;;13.90;99.90;;;;;;5015278;28;20060;-68
2023/05/12 07:11:19;;;;;;;31.88;18.65;;;13.90;99.90;;;;;;5015164;28;20042;-68
2023/05/12 07:13:51;;;;;;;31.60;18.05;;;14.00;99.90;;;;;;5015154;28;20053;-69
2023/05/12 07:16:17;;;;;;;30.15;17.20;;;14.00;99.90;;;;;;5013724;28;20494;-69
2023/05/12 07:18:44;;;;;;;29.58;17.10;;;14.00;99.90;;;;;;5005309;28;20093;-77
2023/05/12 07:21:11;;;;;;;32.65;17.67;;;14.00;99.90;;;;;;5013229;28;20537;-80
2023/05/12 07:23:36;;;;;;;29.15;16.92;;;14.00;99.90;;;;;;5013013;28;20479;-76
2023/05/12 07:26:04;;;;;;;28.52;16.92;;;14.00;99.90;;;;;;5005700;28;20042;-76
2023/05/12 07:28:34;;;;;;;30.48;17.10;;;14.00;99.90;;;;;;5006615;28;20047;-75
2023/05/12 07:31:00;;;;;;;26.65;17.30;;;14.10;99.90;;;;;;4997601;28;20042;-78
2023/05/12 07:33:26;;;;;;;27.08;16.30;;;14.10;99.90;;;;;;4997753;28;20133;-77
2023/05/12 07:35:52;;;;;;;26.52;16.50;;;14.10;99.90;;;;;;5013598;28;20124;-76
2023/05/12 07:38:17;;;;;;;27.15;16.20;;;14.00;99.90;;;;;;5021124;28;20050;-77
2023/05/12 07:40:43;;;;;;;24.70;15.45;;;14.10;99.90;;;;;;4994418;28;20052;-76
2023/05/12 07:43:09;;;;;;;24.33;15.38;;;14.00;99.90;;;;;;4995086;28;20046;-76
2023/05/12 07:45:35;;;;;;;25.20;15.52;;;14.10;99.90;;;;;;5002355;28;20116;-76
2023/05/12 07:48:02;;;;;;;26.85;16.10;;;14.10;99.90;;;;;;5013933;28;20438;-75
2023/05/12 07:50:27;;;;;;;26.75;15.82;;;14.20;99.90;;;;;;4994425;28;20093;-76
2023/05/12 07:52:53;;;;;;;25.45;15.07;;;14.20;99.90;;;;;;4994687;28;20081;-75
2023/05/12 07:55:20;;;;;;;23.23;15.20;;;14.20;99.90;;;;;;4993050;28;20053;-75
2023/05/12 07:57:48;;;;;;;25.27;15.57;;;14.30;99.90;;;;;;5000786;28;20478;-75
2023/05/12 08:00:14;;;;;;;22.58;14.93;;;14.30;99.90;;;;;;4999924;28;20056;-76
2023/05/12 08:02:41;;;;;;;23.60;15.07;;;14.40;99.90;;;;;;5012790;28;20124;-75
2023/05/12 08:05:08;;;;;;;20.90;14.45;;;14.40;99.90;;;;;;5009851;28;20069;-77
2023/05/12 08:07:35;;;;;;;21.92;14.80;;;14.50;99.90;;;;;;5013845;28;20045;-76
2023/05/12 08:10:01;;;;;;;22.60;14.90;;;14.40;99.90;;;;;;5005021;28;20057;-75
2023/05/12 08:12:27;;;;;;;25.05;15.27;;;14.50;99.90;;;;;;5011140;28;20121;-77
2023/05/12 08:14:53;;;;;;;22.15;15.13;;;14.50;99.90;;;;;;4988376;28;20517;-75
2023/05/12 08:17:19;;;;;;;25.67;16.05;;;14.50;99.90;;;;;;5011798;28;20494;-74
2023/05/12 08:19:45;;;;;;;23.35;15.15;;;14.50;99.90;;;;;;5008953;28;20065;-75
2023/05/12 08:22:11;;;;;;;24.27;16.17;;;14.70;99.90;;;;;;4981925;28;20073;-79
2023/05/12 08:24:36;;;;;;;23.92;15.45;;;14.70;99.90;;;;;;5008197;28;20050;-78
2023/05/12 08:27:02;;;;;;;23.35;14.73;;;14.90;99.90;;;;;;5013373;28;20073;-79
2023/05/12 08:29:28;;;;;;;23.45;15.25;;;15.00;99.90;;;;;;5007365;28;20046;-79
2023/05/12 08:31:54;;;;;;;25.73;16.73;;;15.20;99.90;;;;;;4994134;28;20397;-79
2023/05/12 08:34:19;;;;;;;24.15;15.65;;;15.30;99.90;;;;;;4996404;28;20049;-80
2023/05/12 08:36:45;;;;;;;23.45;16.05;;;15.50;99.90;;;;;;4993728;28;20453;-80
2023/05/12 08:39:11;;;;;;;23.00;15.80;;;15.70;99.90;;;;;;5008904;28;20041;-79
2023/05/12 08:42:08;;;;;;;22.63;15.55;;;15.90;99.90;;;;;;5017409;28;20169;-78
2023/05/12 08:44:38;;;;;;;23.33;15.65;;;16.10;99.90;;;;;;5002976;28;20054;-78
2023/05/12 08:47:04;;;;;;;21.05;14.40;;;16.20;99.90;;;;;;4993067;28;20046;-78
2023/05/12 08:49:31;;;;;;;19.38;14.55;;;16.30;99.90;;;;;;4993415;28;20046;-79
2023/05/12 08:52:00;;;;;;;22.63;16.15;;;16.40;99.90;;;;;;4993093;28;20058;-79
2023/05/12 08:54:27;;;;;;;22.50;15.20;;;16.50;99.90;;;;;;4993529;28;20043;-75
2023/05/12 08:56:54;;;;;;;20.88;15.20;;;16.60;99.90;;;;;;4993515;28;20050;-76
2023/05/12 08:59:19;;;;;;;18.23;14.02;;;16.70;99.90;;;;;;4993261;28;20049;-78
2023/05/12 09:01:47;;;;;;;18.45;14.40;;;16.80;99.90;;;;;;4994682;28;20046;-79
2023/05/12 09:04:16;;;;;;;18.63;14.15;;;16.80;99.90;;;;;;5006603;28;20042;-80
2023/05/12 09:06:45;;;;;;;17.70;13.80;;;16.90;99.90;;;;;;4993022;28;20392;-81
2023/05/12 09:09:13;;;;;;;18.98;14.07;;;17.00;99.90;;;;;;4993242;28;20065;-78
2023/05/12 09:11:40;;;;;;;19.67;14.38;;;17.10;99.90;;;;;;4993408;28;20061;-79
2023/05/12 09:14:20;;;;;;;19.92;14.43;;;17.20;99.90;;;;;;4997400;28;20038;-81
2023/05/12 09:16:49;;;;;;;18.33;14.40;;;17.30;99.90;;;;;;4998705;28;20054;-79
2023/05/12 09:19:20;;;;;;;19.35;14.73;;;17.40;99.90;;;;;;4992783;28;20138;-75
2023/05/12 09:21:46;;;;;;;16.95;13.45;;;17.50;99.90;;;;;;4992846;28;20066;-78
2023/05/12 09:24:12;;;;;;;18.13;14.35;;;17.70;99.90;;;;;;5002992;28;20060;-77
2023/05/12 09:26:44;;;;;;;16.80;13.43;;;17.70;99.90;;;;;;5012417;28;20053;-75
2023/05/12 09:29:11;;;;;;;18.08;14.30;;;17.80;99.90;;;;;;5010316;28;20541;-77
2023/05/12 09:31:36;;;;;;;17.40;13.00;;;18.00;99.90;;;;;;5012512;28;20038;-77
2023/05/12 09:34:11;;;;;;;15.93;13.18;;;18.40;99.90;;;;;;5003066;28;20053;-81
2023/05/12 09:36:37;;;;;;;15.30;13.00;;;18.70;99.90;;;;;;4992514;28;20050;-78
2023/05/12 09:39:08;;;;;;;15.70;13.00;;;18.80;99.90;;;;;;5009415;28;20069;-78
2023/05/12 09:41:38;;;;;;;15.95;12.75;;;18.90;99.90;;;;;;5011222;28;20058;-77
2023/05/12 09:44:05;;;;;;;15.50;12.55;;;19.00;99.90;;;;;;5011023;28;20048;-79
2023/05/12 09:46:31;;;;;;;16.35;12.50;;;19.00;99.90;;;;;;5011114;28;20498;-80
2023/05/12 09:48:57;;;;;;;16.67;12.65;;;19.10;99.90;;;;;;5012164;28;20111;-79
2023/05/12 09:51:24;;;;;;;16.30;12.48;;;19.20;99.90;;;;;;5012088;28;20038;-80
2023/05/12 09:53:50;;;;;;;14.70;12.15;;;19.30;99.90;;;;;;5010564;28;20053;-80
2023/05/12 09:56:17;;;;;;;14.35;12.13;;;19.30;99.90;;;;;;5012331;28;20048;-80
2023/05/12 09:58:47;;;;;;;15.48;12.10;;;19.50;99.90;;;;;;5010806;28;20482;-79
2023/05/12 10:01:15;;;;;;;14.15;11.50;;;19.60;99.90;;;;;;5001680;28;20073;-80
2023/05/12 10:03:43;;;;;;;11.10;9.40;;;19.80;99.90;;;;;;5009291;28;20046;-79
2023/05/12 10:06:14;;;;;;;10.57;9.07;;;19.90;99.90;;;;;;4993795;28;20046;-81
2023/05/12 10:08:53;;;;;;;11.40;9.88;;;20.10;99.90;;;;;;4991562;28;20148;-81
2023/05/12 10:11:21;;;;;;;11.55;9.48;;;20.10;99.90;;;;;;4992706;28;20425;-85
2023/05/12 10:13:47;;;;;;;8.70;7.78;;;20.20;99.90;;;;;;4998146;28;20049;-80
2023/05/12 10:16:14;;;;;;;9.98;8.38;;;20.20;99.90;;;;;;4998749;28;20076;-86
2023/05/12 10:18:45;;;;;;;10.57;8.52;;;20.30;99.90;;;;;;5026860;28;20072;-85
2023/05/12 10:21:12;;;;;;;11.38;8.63;;;20.50;99.90;;;;;;4995194;28;20113;-81
2023/05/12 10:23:40;;;;;;;12.13;10.38;;;20.60;99.90;;;;;;4998076;28;20049;-79
2023/05/12 10:26:06;;;;;;;9.20;8.18;;;20.80;99.90;;;;;;5010729;28;20401;-80
2023/05/12 10:28:32;;;;;;;8.40;7.50;;;20.90;99.90;;;;;;5011977;28;20048;-81
2023/05/12 10:30:58;;;;;;;9.93;8.75;;;21.00;99.90;;;;;;5011259;28;20038;-82
2023/05/12 10:33:25;;;;;;;11.88;9.63;;;21.00;99.90;;;;;;5007907;28;20073;-79
2023/05/12 10:35:51;;;;;;;10.85;9.50;;;21.10;99.90;;;;;;4992232;28;20054;-79
2023/05/12 10:38:20;;;;;;;12.93;11.13;;;21.20;99.90;;;;;;5001695;28;20060;-81
2023/05/12 10:40:59;;;;;;;11.63;10.43;;;21.30;99.90;;;;;;5012248;28;20445;-81
2023/05/12 10:43:44;;;;;;;12.80;11.23;;;21.40;99.90;;;;;;5015074;28;20057;-80
2023/05/12 10:46:20;;;;;;;13.73;12.05;;;21.50;99.90;;;;;;5013265;28;20087;-83
2023/05/12 10:48:57;;;;;;;;;;;21.70;99.90;;;;;;5015373;28;20064;-84
2023/05/12 10:51:28;;;;;;;14.35;12.00;;;21.80;99.90;;;;;;5014749;28;20289;-84
2023/05/12 10:54:05;;;;;;;12.85;11.63;;;22.00;99.90;;;;;;5014061;28;20490;-83
2023/05/12 10:56:37;;;;;;;12.07;10.88;;;22.10;99.90;;;;;;5013745;28;20045;-83
2023/05/12 10:59:12;;;;;;;11.73;10.48;;;22.30;99.90;;;;;;5014859;28;20049;-85
2023/05/12 11:01:38;;;;;;;12.52;11.23;;;22.40;99.90;;;;;;5002909;28;20050;-82
2023/05/12 11:04:15;;;;;;;12.18;10.98;;;22.70;99.90;;;;;;5014119;28;20050;-85
2023/05/12 11:06:42;;;;;;;11.93;10.48;;;23.00;99.90;;;;;;4994080;28;20054;-85
2023/05/12 11:09:12;;;;;;;12.18;10.55;;;23.30;99.90;;;;;;4995276;28;20049;-83
2023/05/12 11:11:38;;;;;;;11.50;10.30;;;23.60;99.90;;;;;;4994121;28;20491;-83
2023/05/12 11:14:04;;;;;;;11.27;9.50;;;23.80;99.90;;;;;;4995351;28;20403;-82
2023/05/12 11:16:30;;;;;;;12.05;10.82;;;24.00;99.90;;;;;;4998840;28;20052;-84
2023/05/12 11:19:05;;;;;;;11.50;10.30;;;24.30;99.90;;;;;;5006294;28;20461;-82
2023/05/12 11:21:31;;;;;;;;;;;24.40;99.90;;;;;;5005782;28;20125;-81
2023/05/12 11:23:59;;;;;;;11.00;9.88;;;24.50;99.90;;;;;;5000201;28;19925;-81
2023/05/12 11:26:25;;;;;;;12.25;9.85;;;24.70;99.90;;;;;;5006160;28;20046;-80
2023/05/12 11:28:51;;;;;;;9.50;8.60;;;24.90;99.90;;;;;;5014659;28;20088;-81
2023/05/12 11:31:20;;;;;;;13.85;9.25;;;25.10;99.90;;;;;;5014160;28;20081;-81
2023/05/12 11:33:47;;;;;;;9.70;8.70;;;25.10;99.90;;;;;;5012265;28;20038;-77
2023/05/12 11:36:13;;;;;;;8.48;7.65;;;25.00;99.90;;;;;;5014469;28;20061;-78
2023/05/12 11:38:39;;;;;;;8.80;7.65;;;24.90;99.90;;;;;;5001853;28;20070;-81
2023/05/12 11:41:05;;;;;;;9.32;8.32;;;25.00;99.90;;;;;;5005986;28;20038;-80
2023/05/12 11:43:30;;;;;;;9.60;8.35;;;25.10;99.90;;;;;;5013607;28;20045;-80
2023/05/12 11:45:56;;;;;;;8.07;7.10;;;25.20;99.90;;;;;;5012289;28;20487;-82
2023/05/12 11:48:32;;;;;;;9.75;8.50;;;25.20;99.90;;;;;;5013992;28;20086;-81
2023/05/12 11:50:58;;;;;;;7.10;6.40;;;25.40;99.90;;;;;;5013315;28;20038;-79
2023/05/12 11:53:24;;;;;;;6.45;5.38;;;25.40;99.90;;;;;;5013474;28;20502;-78
2023/05/12 11:55:52;;;;;;;6.88;6.18;;;25.50;99.90;;;;;;5014460;28;20042;-78
2023/05/12 11:58:25;;;;;;;7.70;6.90;;;25.40;99.90;;;;;;5014429;28;20066;-80
2023/05/12 12:00:51;;;;;;;10.82;6.75;;;25.50;99.90;;;;;;5013529;28;20552;-82
2023/05/12 12:03:17;;;;;;;8.75;7.00;;;25.60;99.90;;;;;;5013380;28;20060;-79
2023/05/12 12:05:56;;;;;;;7.38;6.32;;;25.70;99.90;;;;;;5012613;28;20074;-81
2023/05/12 12:08:22;;;;;;;7.68;6.72;;;25.80;99.90;;;;;;5014036;28;20053;-83
2023/05/12 12:10:48;;;;;;;5.63;4.75;;;25.90;99.90;;;;;;5014179;28;20137;-86
2023/05/12 12:13:24;;;;;;;5.93;4.70;;;26.00;99.90;;;;;;5011916;28;20041;-84
2023/05/12 12:15:51;;;;;;;5.43;4.13;;;26.10;99.90;;;;;;5011703;28;20133;-79
2023/05/12 12:18:17;;;;;;;7.50;4.75;;;26.20;99.90;;;;;;5010379;28;20137;-86
2023/05/12 12:20:44;;;;;;;5.10;4.60;;;26.30;99.90;;;;;;4997364;28;20058;-78
2023/05/12 12:23:10;;;;;;;5.57;5.07;;;26.30;99.90;;;;;;5009207;28;20491;-85
2023/05/12 12:25:36;;;;;;;6.28;4.75;;;26.30;99.90;;;;;;5010784;28;20050;-82
2023/05/12 12:28:02;;;;;;;5.32;4.15;;;26.40;99.90;;;;;;5010558;28;20679;-89
2023/05/12 12:30:27;;;;;;;4.28;3.70;;;26.50;99.90;;;;;;4992154;28;20082;-85